sensor_id;sensor_type;location;lat;lon;timestamp;P1;durP1;ratioP1;P2;durP2;ratioP2
16075;SDS011;8142;48.242;11.644;2023-02-28T00:01:07;5.07;;;3.10;;
16075;SDS011;8142;48.242;11.644;2023-02-28T00:03:33;4.77;;;3.17;;
16075;SDS011;8142;48.242;11.644;2023-02-28T00:06:04;5.13;;;3.60;;
16075;SDS011;8142;48.242;11.644;2023-02-28T00:08:31;4.77;;;3.27;;
16075;SDS011;8142;48.242;11.644;2023-02-28T00:11:00;4.90;;;3.10;;
16075;SDS011;8142;48.242;11.644;2023-02-28T00:13:35;3.77;;;2.90;;
16075;SDS011;8142;48.242;11.644;2023-02-28T00:16:06;6.03;;;3.60;;
16075;SDS011;8142;48.242;11.644;2023-02-28T00:18:34;4.67;;;3.30;;
16075;SDS011;8142;48.242;11.644;2023-02-28T00:21:00;5.37;;;3.23;;
16075;SDS011;8142;48.242;11.644;2023-02-28T00:23:26;6.80;;;3.60;;
16075;SDS011;8142;48.242;11.644;2023-02-28T00:25:53;4.33;;;3.10;;
16075;SDS011;8142;48.242;11.644;2023-02-28T00:28:19;6.20;;;3.50;;
16075;SDS011;8142;48.242;11.644;2023-02-28T00:30:45;4.83;;;3.27;;
16075;SDS011;8142;48.242;11.644;2023-02-28T00:33:12;5.00;;;3.50;;
16075;SDS011;8142;48.242;11.644;2023-02-28T00:35:38;5.63;;;3.60;;
16075;SDS011;8142;48.242;11.644;2023-02-28T00:38:04;4.77;;;3.40;;
16075;SDS011;8142;48.242;11.644;2023-02-28T00:40:30;4.57;;;3.43;;
16075;SDS011;8142;48.242;11.644;2023-02-28T00:42:55;6.53;;;3.53;;
16075;SDS011;8142;48.242;11.644;2023-02-28T00:45:21;4.80;;;3.47;;
16075;SDS011;8142;48.242;11.644;2023-02-28T00:47:47;5.83;;;3.77;;
16075;SDS011;8142;48.242;11.644;2023-02-28T00:50:18;7.37;;;3.70;;
16075;SDS011;8142;48.242;11.644;2023-02-28T00:52:45;4.90;;;3.50;;
16075;SDS011;8142;48.242;11.644;2023-02-28T00:55:11;4.97;;;3.43;;
16075;SDS011;8142;48.242;11.644;2023-02-28T00:57:37;7.07;;;3.73;;
16075;SDS011;8142;48.242;11.644;2023-02-28T01:00:04;5.67;;;3.50;;
16075;SDS011;8142;48.242;11.644;2023-02-28T01:02:30;5.53;;;3.63;;
16075;SDS011;8142;48.242;11.644;2023-02-28T01:04:56;5.63;;;3.70;;
16075;SDS011;8142;48.242;11.644;2023-02-28T01:07:22;5.93;;;3.60;;
16075;SDS011;8142;48.242;11.644;2023-02-28T01:09:48;4.10;;;3.47;;
16075;SDS011;8142;48.242;11.644;2023-02-28T01:12:15;6.10;;;3.30;;
16075;SDS011;8142;48.242;11.644;2023-02-28T01:14:41;5.63;;;3.63;;
16075;SDS011;8142;48.242;11.644;2023-02-28T01:17:07;5.27;;;3.70;;
16075;SDS011;8142;48.242;11.644;2023-02-28T01:19:33;4.47;;;3.30;;
16075;SDS011;8142;48.242;11.644;2023-02-28T01:22:03;6.70;;;3.80;;
16075;SDS011;8142;48.242;11.644;2023-02-28T01:24:30;4.87;;;3.50;;
16075;SDS011;8142;48.242;11.644;2023-02-28T01:26:56;5.23;;;3.43;;
16075;SDS011;8142;48.242;11.644;2023-02-28T01:29:23;5.03;;;3.30;;
16075;SDS011;8142;48.242;11.644;2023-02-28T01:31:49;5.87;;;3.50;;
16075;SDS011;8142;48.242;11.644;2023-02-28T01:34:15;5.90;;;3.70;;
16075;SDS011;8142;48.242;11.644;2023-02-28T01:36:44;6.63;;;3.70;;
16075;SDS011;8142;48.242;11.644;2023-02-28T01:39:11;4.80;;;3.67;;
16075;SDS011;8142;48.242;11.644;2023-02-28T01:41:38;7.00;;;3.93;;
16075;SDS011;8142;48.242;11.644;2023-02-28T01:47:08;6.10;;;3.67;;
16075;SDS011;8142;48.242;11.644;2023-02-28T01:49:34;4.67;;;3.30;;
16075;SDS011;8142;48.242;11.644;2023-02-28T01:52:00;6.27;;;3.80;;
16075;SDS011;8142;48.242;11.644;2023-02-28T01:54:28;6.00;;;3.63;;
16075;SDS011;8142;48.242;11.644;2023-02-28T01:56:58;5.43;;;3.73;;
16075;SDS011;8142;48.242;11.644;2023-02-28T01:59:56;4.87;;;3.20;;
16075;SDS011;8142;48.242;11.644;2023-02-28T02:02:24;5.97;;;3.60;;
16075;SDS011;8142;48.242;11.644;2023-02-28T02:05:03;4.20;;;3.33;;
16075;SDS011;8142;48.242;11.644;2023-02-28T02:07:32;5.83;;;4.00;;
16075;SDS011;8142;48.242;11.644;2023-02-28T02:10:03;6.40;;;3.97;;
16075;SDS011;8142;48.242;11.644;2023-02-28T02:12:41;5.90;;;4.03;;
16075;SDS011;8142;48.242;11.644;2023-02-28T02:15:34;6.70;;;3.77;;
16075;SDS011;8142;48.242;11.644;2023-02-28T02:18:03;6.53;;;3.83;;
16075;SDS011;8142;48.242;11.644;2023-02-28T02:20:46;5.00;;;3.63;;
16075;SDS011;8142;48.242;11.644;2023-02-28T02:25:58;6.03;;;3.90;;
16075;SDS011;8142;48.242;11.644;2023-02-28T02:37:02;6.40;;;4.10;;
16075;SDS011;8142;48.242;11.644;2023-02-28T02:42:16;5.43;;;3.70;;
16075;SDS011;8142;48.242;11.644;2023-02-28T02:44:50;5.57;;;3.77;;
16075;SDS011;8142;48.242;11.644;2023-02-28T02:47:24;6.33;;;4.03;;
16075;SDS011;8142;48.242;11.644;2023-02-28T02:49:53;6.03;;;3.90;;
16075;SDS011;8142;48.242;11.644;2023-02-28T02:52:22;5.80;;;3.80;;
16075;SDS011;8142;48.242;11.644;2023-02-28T02:54:54;6.63;;;4.00;;
16075;SDS011;8142;48.242;11.644;2023-02-28T02:57:27;5.07;;;3.80;;
16075;SDS011;8142;48.242;11.644;2023-02-28T02:59:58;6.60;;;4.40;;
16075;SDS011;8142;48.242;11.644;2023-02-28T03:02:26;6.50;;;3.90;;
16075;SDS011;8142;48.242;11.644;2023-02-28T03:04:59;5.87;;;4.00;;
16075;SDS011;8142;48.242;11.644;2023-02-28T03:07:27;7.13;;;4.17;;
16075;SDS011;8142;48.242;11.644;2023-02-28T03:09:54;7.60;;;4.20;;
16075;SDS011;8142;48.242;11.644;2023-02-28T03:12:23;8.20;;;4.13;;
16075;SDS011;8142;48.242;11.644;2023-02-28T03:20:04;8.10;;;4.60;;
16075;SDS011;8142;48.242;11.644;2023-02-28T03:25:23;6.43;;;4.50;;
16075;SDS011;8142;48.242;11.644;2023-02-28T03:33:36;8.03;;;4.93;;
16075;SDS011;8142;48.242;11.644;2023-02-28T03:36:09;6.20;;;4.40;;
16075;SDS011;8142;48.242;11.644;2023-02-28T03:39:13;11.17;;;5.20;;
16075;SDS011;8142;48.242;11.644;2023-02-28T03:42:18;7.43;;;4.63;;
16075;SDS011;8142;48.242;11.644;2023-02-28T03:47:09;7.60;;;4.97;;
16075;SDS011;8142;48.242;11.644;2023-02-28T03:49:45;8.80;;;4.90;;
16075;SDS011;8142;48.242;11.644;2023-02-28T03:52:16;9.63;;;5.20;;
16075;SDS011;8142;48.242;11.644;2023-02-28T03:54:47;8.27;;;5.33;;
16075;SDS011;8142;48.242;11.644;2023-02-28T04:00:14;6.27;;;4.77;;
16075;SDS011;8142;48.242;11.644;2023-02-28T04:02:59;8.17;;;5.40;;
16075;SDS011;8142;48.242;11.644;2023-02-28T04:05:25;9.37;;;4.90;;
16075;SDS011;8142;48.242;11.644;2023-02-28T04:07:52;7.10;;;4.97;;
16075;SDS011;8142;48.242;11.644;2023-02-28T04:10:19;7.33;;;4.60;;
16075;SDS011;8142;48.242;11.644;2023-02-28T04:12:45;9.83;;;5.27;;
16075;SDS011;8142;48.242;11.644;2023-02-28T04:15:11;7.87;;;5.27;;
16075;SDS011;8142;48.242;11.644;2023-02-28T04:17:37;9.37;;;5.50;;
16075;SDS011;8142;48.242;11.644;2023-02-28T04:20:03;6.40;;;4.80;;
16075;SDS011;8142;48.242;11.644;2023-02-28T04:22:34;9.17;;;5.70;;
16075;SDS011;8142;48.242;11.644;2023-02-28T04:25:00;9.70;;;5.80;;
16075;SDS011;8142;48.242;11.644;2023-02-28T04:27:26;8.83;;;5.53;;
16075;SDS011;8142;48.242;11.644;2023-02-28T04:29:52;11.27;;;6.13;;
16075;SDS011;8142;48.242;11.644;2023-02-28T04:32:17;10.30;;;5.93;;
16075;SDS011;8142;48.242;11.644;2023-02-28T04:34:43;10.33;;;5.57;;
16075;SDS011;8142;48.242;11.644;2023-02-28T04:37:09;8.73;;;5.77;;
16075;SDS011;8142;48.242;11.644;2023-02-28T04:39:36;8.13;;;5.60;;
16075;SDS011;8142;48.242;11.644;2023-02-28T04:42:03;9.87;;;6.00;;
16075;SDS011;8142;48.242;11.644;2023-02-28T04:44:29;10.43;;;6.17;;
16075;SDS011;8142;48.242;11.644;2023-02-28T04:46:55;9.80;;;6.03;;
16075;SDS011;8142;48.242;11.644;2023-02-28T04:49:20;9.77;;;6.40;;
16075;SDS011;8142;48.242;11.644;2023-02-28T04:51:46;8.73;;;6.17;;
16075;SDS011;8142;48.242;11.644;2023-02-28T04:54:12;11.87;;;6.63;;
16075;SDS011;8142;48.242;11.644;2023-02-28T04:56:38;10.53;;;6.67;;
16075;SDS011;8142;48.242;11.644;2023-02-28T04:59:04;9.03;;;5.80;;
16075;SDS011;8142;48.242;11.644;2023-02-28T05:01:31;9.53;;;6.60;;
16075;SDS011;8142;48.242;11.644;2023-02-28T05:03:59;9.30;;;6.53;;
16075;SDS011;8142;48.242;11.644;2023-02-28T05:06:27;9.90;;;6.77;;
16075;SDS011;8142;48.242;11.644;2023-02-28T05:08:56;9.20;;;6.13;;
16075;SDS011;8142;48.242;11.644;2023-02-28T05:11:29;11.10;;;6.83;;
16075;SDS011;8142;48.242;11.644;2023-02-28T05:14:00;10.23;;;6.83;;
16075;SDS011;8142;48.242;11.644;2023-02-28T05:16:27;10.13;;;6.50;;
16075;SDS011;8142;48.242;11.644;2023-02-28T05:18:53;9.37;;;6.57;;
16075;SDS011;8142;48.242;11.644;2023-02-28T05:21:32;11.27;;;7.30;;
16075;SDS011;8142;48.242;11.644;2023-02-28T05:24:02;11.80;;;7.00;;
16075;SDS011;8142;48.242;11.644;2023-02-28T05:26:37;10.23;;;6.77;;
16075;SDS011;8142;48.242;11.644;2023-02-28T05:29:04;12.10;;;7.37;;
16075;SDS011;8142;48.242;11.644;2023-02-28T05:31:30;10.77;;;7.10;;
16075;SDS011;8142;48.242;11.644;2023-02-28T05:33:56;13.30;;;7.33;;
16075;SDS011;8142;48.242;11.644;2023-02-28T05:36:22;9.80;;;6.77;;
16075;SDS011;8142;48.242;11.644;2023-02-28T05:38:49;15.70;;;7.30;;
16075;SDS011;8142;48.242;11.644;2023-02-28T05:41:16;11.63;;;7.63;;
16075;SDS011;8142;48.242;11.644;2023-02-28T05:43:42;13.67;;;7.43;;
16075;SDS011;8142;48.242;11.644;2023-02-28T05:46:09;11.27;;;7.57;;
16075;SDS011;8142;48.242;11.644;2023-02-28T05:48:36;14.43;;;7.87;;
16075;SDS011;8142;48.242;11.644;2023-02-28T05:51:03;12.13;;;7.00;;
16075;SDS011;8142;48.242;11.644;2023-02-28T05:53:30;11.50;;;7.47;;
16075;SDS011;8142;48.242;11.644;2023-02-28T05:55:57;12.27;;;7.40;;
16075;SDS011;8142;48.242;11.644;2023-02-28T05:58:23;10.80;;;7.03;;
16075;SDS011;8142;48.242;11.644;2023-02-28T06:00:54;10.97;;;7.23;;
16075;SDS011;8142;48.242;11.644;2023-02-28T06:03:20;10.77;;;7.33;;
16075;SDS011;8142;48.242;11.644;2023-02-28T06:05:45;11.50;;;7.37;;
16075;SDS011;8142;48.242;11.644;2023-02-28T06:08:11;11.83;;;7.87;;
16075;SDS011;8142;48.242;11.644;2023-02-28T06:10:37;11.33;;;7.43;;
16075;SDS011;8142;48.242;11.644;2023-02-28T06:13:03;10.20;;;7.20;;
16075;SDS011;8142;48.242;11.644;2023-02-28T06:15:30;12.17;;;7.37;;
16075;SDS011;8142;48.242;11.644;2023-02-28T06:17:56;12.10;;;7.53;;
16075;SDS011;8142;48.242;11.644;2023-02-28T06:20:23;12.60;;;7.30;;
16075;SDS011;8142;48.242;11.644;2023-02-28T06:22:51;12.00;;;7.20;;
16075;SDS011;8142;48.242;11.644;2023-02-28T06:25:17;12.00;;;7.80;;
16075;SDS011;8142;48.242;11.644;2023-02-28T06:27:43;12.73;;;7.40;;
16075;SDS011;8142;48.242;11.644;2023-02-28T06:30:09;12.43;;;7.90;;
16075;SDS011;8142;48.242;11.644;2023-02-28T06:32:36;11.97;;;7.60;;
16075;SDS011;8142;48.242;11.644;2023-02-28T06:35:02;11.73;;;7.83;;
16075;SDS011;8142;48.242;11.644;2023-02-28T06:37:30;12.00;;;7.77;;
16075;SDS011;8142;48.242;11.644;2023-02-28T06:39:56;12.40;;;7.70;;
16075;SDS011;8142;48.242;11.644;2023-02-28T06:42:23;11.70;;;7.90;;
16075;SDS011;8142;48.242;11.644;2023-02-28T06:44:56;11.27;;;7.50;;
16075;SDS011;8142;48.242;11.644;2023-02-28T06:47:22;13.67;;;7.63;;
16075;SDS011;8142;48.242;11.644;2023-02-28T06:49:49;11.67;;;7.53;;
16075;SDS011;8142;48.242;11.644;2023-02-28T06:52:14;12.87;;;7.53;;
16075;SDS011;8142;48.242;11.644;2023-02-28T06:54:41;13.33;;;8.23;;
16075;SDS011;8142;48.242;11.644;2023-02-28T06:57:06;10.70;;;7.63;;
16075;SDS011;8142;48.242;11.644;2023-02-28T06:59:32;14.37;;;8.57;;
16075;SDS011;8142;48.242;11.644;2023-02-28T07:02:00;13.53;;;8.10;;
16075;SDS011;8142;48.242;11.644;2023-02-28T07:04:27;14.07;;;8.57;;
16075;SDS011;8142;48.242;11.644;2023-02-28T07:06:54;12.03;;;8.17;;
16075;SDS011;8142;48.242;11.644;2023-02-28T07:09:22;14.60;;;8.77;;
16075;SDS011;8142;48.242;11.644;2023-02-28T07:11:48;15.80;;;9.33;;
16075;SDS011;8142;48.242;11.644;2023-02-28T07:14:14;16.00;;;9.60;;
16075;SDS011;8142;48.242;11.644;2023-02-28T07:16:40;15.57;;;9.50;;
16075;SDS011;8142;48.242;11.644;2023-02-28T07:19:05;13.30;;;8.73;;
16075;SDS011;8142;48.242;11.644;2023-02-28T07:21:31;15.17;;;8.50;;
16075;SDS011;8142;48.242;11.644;2023-02-28T07:23:57;12.03;;;8.23;;
16075;SDS011;8142;48.242;11.644;2023-02-28T07:26:23;15.03;;;8.57;;
16075;SDS011;8142;48.242;11.644;2023-02-28T07:28:49;14.27;;;9.50;;
16075;SDS011;8142;48.242;11.644;2023-02-28T07:31:15;15.10;;;9.77;;
16075;SDS011;8142;48.242;11.644;2023-02-28T07:33:42;18.60;;;10.87;;
16075;SDS011;8142;48.242;11.644;2023-02-28T07:36:17;19.20;;;11.80;;
16075;SDS011;8142;48.242;11.644;2023-02-28T07:38:46;15.53;;;9.93;;
16075;SDS011;8142;48.242;11.644;2023-02-28T07:41:15;18.17;;;10.17;;
16075;SDS011;8142;48.242;11.644;2023-02-28T07:43:42;16.70;;;10.60;;
16075;SDS011;8142;48.242;11.644;2023-02-28T07:46:11;15.87;;;10.10;;
16075;SDS011;8142;48.242;11.644;2023-02-28T07:48:40;17.87;;;10.90;;
16075;SDS011;8142;48.242;11.644;2023-02-28T07:51:06;15.00;;;10.13;;
16075;SDS011;8142;48.242;11.644;2023-02-28T07:53:32;15.67;;;10.17;;
16075;SDS011;8142;48.242;11.644;2023-02-28T07:55:59;15.60;;;10.07;;
16075;SDS011;8142;48.242;11.644;2023-02-28T07:58:26;17.57;;;10.30;;
16075;SDS011;8142;48.242;11.644;2023-02-28T08:00:54;18.77;;;11.30;;
16075;SDS011;8142;48.242;11.644;2023-02-28T08:03:20;18.50;;;11.43;;
16075;SDS011;8142;48.242;11.644;2023-02-28T08:05:47;18.97;;;11.57;;
16075;SDS011;8142;48.242;11.644;2023-02-28T08:08:14;17.70;;;10.33;;
16075;SDS011;8142;48.242;11.644;2023-02-28T08:10:40;14.63;;;9.77;;
16075;SDS011;8142;48.242;11.644;2023-02-28T08:13:07;17.97;;;10.93;;
16075;SDS011;8142;48.242;11.644;2023-02-28T08:15:33;16.40;;;11.00;;
16075;SDS011;8142;48.242;11.644;2023-02-28T08:17:58;16.77;;;10.80;;
16075;SDS011;8142;48.242;11.644;2023-02-28T08:20:25;20.37;;;12.37;;
16075;SDS011;8142;48.242;11.644;2023-02-28T08:22:51;22.77;;;12.00;;
16075;SDS011;8142;48.242;11.644;2023-02-28T08:25:17;16.03;;;10.23;;
16075;SDS011;8142;48.242;11.644;2023-02-28T08:27:43;21.47;;;13.23;;
16075;SDS011;8142;48.242;11.644;2023-02-28T08:30:12;22.77;;;12.23;;
16075;SDS011;8142;48.242;11.644;2023-02-28T08:32:39;20.33;;;12.67;;
16075;SDS011;8142;48.242;11.644;2023-02-28T08:35:06;22.73;;;12.30;;
16075;SDS011;8142;48.242;11.644;2023-02-28T08:37:34;21.80;;;12.90;;
16075;SDS011;8142;48.242;11.644;2023-02-28T08:40:00;18.17;;;11.70;;
16075;SDS011;8142;48.242;11.644;2023-02-28T08:42:26;16.33;;;11.00;;
16075;SDS011;8142;48.242;11.644;2023-02-28T08:44:52;17.47;;;10.80;;
16075;SDS011;8142;48.242;11.644;2023-02-28T08:47:17;17.47;;;10.07;;
16075;SDS011;8142;48.242;11.644;2023-02-28T08:49:44;15.73;;;10.17;;
16075;SDS011;8142;48.242;11.644;2023-02-28T08:52:09;17.67;;;10.40;;
16075;SDS011;8142;48.242;11.644;2023-02-28T08:54:35;15.40;;;10.37;;
16075;SDS011;8142;48.242;11.644;2023-02-28T08:57:02;17.47;;;10.43;;
16075;SDS011;8142;48.242;11.644;2023-02-28T08:59:28;16.60;;;10.70;;
16075;SDS011;8142;48.242;11.644;2023-02-28T09:01:55;19.90;;;11.10;;
16075;SDS011;8142;48.242;11.644;2023-02-28T09:04:20;17.10;;;10.73;;
16075;SDS011;8142;48.242;11.644;2023-02-28T09:06:47;16.93;;;10.93;;
16075;SDS011;8142;48.242;11.644;2023-02-28T09:09:14;18.97;;;11.17;;
16075;SDS011;8142;48.242;11.644;2023-02-28T09:11:40;16.90;;;10.53;;
16075;SDS011;8142;48.242;11.644;2023-02-28T09:14:06;13.80;;;9.83;;
16075;SDS011;8142;48.242;11.644;2023-02-28T09:16:32;17.93;;;11.43;;
16075;SDS011;8142;48.242;11.644;2023-02-28T09:18:59;15.73;;;10.13;;
16075;SDS011;8142;48.242;11.644;2023-02-28T09:21:25;16.87;;;10.60;;
16075;SDS011;8142;48.242;11.644;2023-02-28T09:23:51;15.27;;;10.37;;
16075;SDS011;8142;48.242;11.644;2023-02-28T09:26:18;15.43;;;10.43;;
16075;SDS011;8142;48.242;11.644;2023-02-28T09:28:52;17.07;;;10.57;;
16075;SDS011;8142;48.242;11.644;2023-02-28T09:31:20;17.60;;;10.73;;
16075;SDS011;8142;48.242;11.644;2023-02-28T09:33:48;16.33;;;10.30;;
16075;SDS011;8142;48.242;11.644;2023-02-28T09:36:18;21.23;;;13.33;;
16075;SDS011;8142;48.242;11.644;2023-02-28T09:38:45;19.20;;;10.83;;
16075;SDS011;8142;48.242;11.644;2023-02-28T09:41:21;17.63;;;11.27;;
16075;SDS011;8142;48.242;11.644;2023-02-28T09:43:56;15.97;;;11.10;;
16075;SDS011;8142;48.242;11.644;2023-02-28T09:46:35;16.23;;;10.50;;
16075;SDS011;8142;48.242;11.644;2023-02-28T09:49:23;16.07;;;10.10;;
16075;SDS011;8142;48.242;11.644;2023-02-28T09:54:29;15.60;;;10.40;;
16075;SDS011;8142;48.242;11.644;2023-02-28T10:04:52;16.10;;;10.67;;
16075;SDS011;8142;48.242;11.644;2023-02-28T10:10:04;17.13;;;10.77;;
16075;SDS011;8142;48.242;11.644;2023-02-28T10:12:43;14.33;;;9.93;;
16075;SDS011;8142;48.242;11.644;2023-02-28T10:15:15;14.83;;;10.43;;
16075;SDS011;8142;48.242;11.644;2023-02-28T10:17:43;15.63;;;10.63;;
16075;SDS011;8142;48.242;11.644;2023-02-28T10:20:14;15.67;;;10.27;;
16075;SDS011;8142;48.242;11.644;2023-02-28T10:25:33;15.23;;;10.43;;
16075;SDS011;8142;48.242;11.644;2023-02-28T10:28:05;17.17;;;10.10;;
16075;SDS011;8142;48.242;11.644;2023-02-28T10:30:34;16.43;;;10.60;;
16075;SDS011;8142;48.242;11.644;2023-02-28T10:33:02;14.50;;;10.03;;
16075;SDS011;8142;48.242;11.644;2023-02-28T10:35:28;15.87;;;10.07;;
16075;SDS011;8142;48.242;11.644;2023-02-28T10:37:58;17.23;;;10.93;;
16075;SDS011;8142;48.242;11.644;2023-02-28T10:43:01;14.10;;;10.37;;
16075;SDS011;8142;48.242;11.644;2023-02-28T10:45:52;17.73;;;10.33;;
16075;SDS011;8142;48.242;11.644;2023-02-28T10:50:54;16.10;;;10.07;;
16075;SDS011;8142;48.242;11.644;2023-02-28T10:55:59;14.67;;;9.63;;
16075;SDS011;8142;48.242;11.644;2023-02-28T10:58:40;14.60;;;9.47;;
16075;SDS011;8142;48.242;11.644;2023-02-28T11:01:12;15.50;;;9.47;;
16075;SDS011;8142;48.242;11.644;2023-02-28T11:03:44;16.53;;;9.63;;
16075;SDS011;8142;48.242;11.644;2023-02-28T11:06:29;15.03;;;9.83;;
16075;SDS011;8142;48.242;11.644;2023-02-28T11:09:01;16.37;;;10.10;;
16075;SDS011;8142;48.242;11.644;2023-02-28T11:11:44;15.20;;;9.93;;
16075;SDS011;8142;48.242;11.644;2023-02-28T11:14:22;16.37;;;9.43;;
16075;SDS011;8142;48.242;11.644;2023-02-28T11:16:51;15.60;;;10.57;;
16075;SDS011;8142;48.242;11.644;2023-02-28T11:19:35;16.67;;;9.63;;
16075;SDS011;8142;48.242;11.644;2023-02-28T11:22:05;14.50;;;9.60;;
16075;SDS011;8142;48.242;11.644;2023-02-28T11:24:36;16.40;;;9.97;;
16075;SDS011;8142;48.242;11.644;2023-02-28T11:27:53;13.80;;;9.47;;
16075;SDS011;8142;48.242;11.644;2023-02-28T11:29:57;15.23;;;9.53;;
16075;SDS011;8142;48.242;11.644;2023-02-28T11:32:24;15.43;;;9.60;;
16075;SDS011;8142;48.242;11.644;2023-02-28T11:35:01;17.23;;;10.47;;
16075;SDS011;8142;48.242;11.644;2023-02-28T11:37:30;12.90;;;9.27;;
16075;SDS011;8142;48.242;11.644;2023-02-28T11:39:57;14.53;;;9.60;;
16075;SDS011;8142;48.242;11.644;2023-02-28T11:42:27;13.80;;;9.33;;
16075;SDS011;8142;48.242;11.644;2023-02-28T11:48:10;14.83;;;9.17;;
16075;SDS011;8142;48.242;11.644;2023-02-28T11:50:47;16.27;;;9.60;;
16075;SDS011;8142;48.242;11.644;2023-02-28T11:56:10;15.87;;;10.30;;
16075;SDS011;8142;48.242;11.644;2023-02-28T11:58:49;15.37;;;9.40;;
16075;SDS011;8142;48.242;11.644;2023-02-28T12:01:36;15.87;;;9.27;;
16075;SDS011;8142;48.242;11.644;2023-02-28T12:12:53;14.17;;;9.20;;
16075;SDS011;8142;48.242;11.644;2023-02-28T12:15:36;11.97;;;9.20;;
16075;SDS011;8142;48.242;11.644;2023-02-28T12:18:26;14.73;;;9.33;;
16075;SDS011;8142;48.242;11.644;2023-02-28T12:21:18;13.43;;;9.73;;
16075;SDS011;8142;48.242;11.644;2023-02-28T12:26:40;13.57;;;9.57;;
16075;SDS011;8142;48.242;11.644;2023-02-28T12:31:42;14.93;;;8.57;;
16075;SDS011;8142;48.242;11.644;2023-02-28T12:34:37;14.00;;;9.40;;
16075;SDS011;8142;48.242;11.644;2023-02-28T12:37:13;14.47;;;9.30;;
16075;SDS011;8142;48.242;11.644;2023-02-28T12:39:51;15.10;;;9.53;;
16075;SDS011;8142;48.242;11.644;2023-02-28T12:42:28;14.60;;;9.40;;
16075;SDS011;8142;48.242;11.644;2023-02-28T12:45:01;14.50;;;9.87;;
16075;SDS011;8142;48.242;11.644;2023-02-28T12:47:34;13.53;;;9.60;;
16075;SDS011;8142;48.242;11.644;2023-02-28T12:50:02;13.60;;;9.17;;
16075;SDS011;8142;48.242;11.644;2023-02-28T12:55:35;16.23;;;9.17;;
16075;SDS011;8142;48.242;11.644;2023-02-28T13:09:55;15.40;;;10.03;;
16075;SDS011;8142;48.242;11.644;2023-02-28T13:12:22;15.27;;;10.27;;
16075;SDS011;8142;48.242;11.644;2023-02-28T13:14:49;13.40;;;9.17;;
16075;SDS011;8142;48.242;11.644;2023-02-28T13:17:20;16.13;;;9.17;;
16075;SDS011;8142;48.242;11.644;2023-02-28T13:24:57;14.07;;;9.33;;
16075;SDS011;8142;48.242;11.644;2023-02-28T13:29:49;13.03;;;9.37;;
16075;SDS011;8142;48.242;11.644;2023-02-28T13:46:15;14.40;;;9.00;;
16075;SDS011;8142;48.242;11.644;2023-02-28T13:48:28;14.57;;;9.30;;
16075;SDS011;8142;48.242;11.644;2023-02-28T13:50:55;12.70;;;9.17;;
16075;SDS011;8142;48.242;11.644;2023-02-28T13:53:28;14.70;;;9.93;;
16075;SDS011;8142;48.242;11.644;2023-02-28T13:59:12;13.63;;;9.30;;
16075;SDS011;8142;48.242;11.644;2023-02-28T14:07:43;25.53;;;16.97;;
16075;SDS011;8142;48.242;11.644;2023-02-28T14:10:20;15.67;;;12.03;;
16075;SDS011;8142;48.242;11.644;2023-02-28T14:15:26;15.83;;;10.40;;
16075;SDS011;8142;48.242;11.644;2023-02-28T14:18:03;13.70;;;9.23;;
16075;SDS011;8142;48.242;11.644;2023-02-28T14:20:36;13.53;;;9.47;;
16075;SDS011;8142;48.242;11.644;2023-02-28T14:26:02;15.93;;;9.53;;
16075;SDS011;8142;48.242;11.644;2023-02-28T14:28:46;15.97;;;9.87;;
16075;SDS011;8142;48.242;11.644;2023-02-28T14:31:39;14.33;;;9.83;;
16075;SDS011;8142;48.242;11.644;2023-02-28T14:37:10;13.83;;;9.53;;
16075;SDS011;8142;48.242;11.644;2023-02-28T14:39:42;14.37;;;9.83;;
16075;SDS011;8142;48.242;11.644;2023-02-28T14:44:55;14.03;;;9.63;;
16075;SDS011;8142;48.242;11.644;2023-02-28T14:47:22;13.53;;;9.73;;
16075;SDS011;8142;48.242;11.644;2023-02-28T14:49:51;13.17;;;9.43;;
16075;SDS011;8142;48.242;11.644;2023-02-28T14:54:56;14.50;;;9.67;;
16075;SDS011;8142;48.242;11.644;2023-02-28T14:57:29;14.07;;;9.73;;
16075;SDS011;8142;48.242;11.644;2023-02-28T15:00:01;14.33;;;9.63;;
16075;SDS011;8142;48.242;11.644;2023-02-28T15:02:36;13.83;;;9.63;;
16075;SDS011;8142;48.242;11.644;2023-02-28T15:07:35;15.87;;;9.77;;
16075;SDS011;8142;48.242;11.644;2023-02-28T15:12:53;15.83;;;9.90;;
16075;SDS011;8142;48.242;11.644;2023-02-28T15:15:23;15.47;;;10.33;;
16075;SDS011;8142;48.242;11.644;2023-02-28T15:17:56;16.23;;;9.80;;
16075;SDS011;8142;48.242;11.644;2023-02-28T15:20:22;15.13;;;9.47;;
16075;SDS011;8142;48.242;11.644;2023-02-28T15:22:50;14.20;;;9.63;;
16075;SDS011;8142;48.242;11.644;2023-02-28T15:25:21;13.80;;;9.67;;
16075;SDS011;8142;48.242;11.644;2023-02-28T15:27:52;14.47;;;10.53;;
16075;SDS011;8142;48.242;11.644;2023-02-28T15:30:29;13.83;;;10.23;;
16075;SDS011;8142;48.242;11.644;2023-02-28T15:33:07;16.93;;;10.50;;
16075;SDS011;8142;48.242;11.644;2023-02-28T15:35:36;15.80;;;10.23;;
16075;SDS011;8142;48.242;11.644;2023-02-28T15:38:04;12.97;;;9.77;;
16075;SDS011;8142;48.242;11.644;2023-02-28T15:43:47;16.63;;;11.37;;
16075;SDS011;8142;48.242;11.644;2023-02-28T15:46:12;19.37;;;12.87;;
16075;SDS011;8142;48.242;11.644;2023-02-28T15:48:44;15.47;;;10.67;;
16075;SDS011;8142;48.242;11.644;2023-02-28T15:51:20;15.60;;;9.90;;
16075;SDS011;8142;48.242;11.644;2023-02-28T15:54:00;14.60;;;10.00;;
16075;SDS011;8142;48.242;11.644;2023-02-28T15:56:28;17.50;;;11.47;;
16075;SDS011;8142;48.242;11.644;2023-02-28T15:58:57;17.17;;;10.57;;
16075;SDS011;8142;48.242;11.644;2023-02-28T16:01:27;15.37;;;10.50;;
16075;SDS011;8142;48.242;11.644;2023-02-28T16:03:59;14.90;;;9.40;;
16075;SDS011;8142;48.242;11.644;2023-02-28T16:06:41;15.27;;;9.93;;
16075;SDS011;8142;48.242;11.644;2023-02-28T16:09:15;14.73;;;9.67;;
16075;SDS011;8142;48.242;11.644;2023-02-28T16:11:45;17.20;;;9.17;;
16075;SDS011;8142;48.242;11.644;2023-02-28T16:14:21;14.03;;;9.50;;
16075;SDS011;8142;48.242;11.644;2023-02-28T16:16:50;13.90;;;9.70;;
16075;SDS011;8142;48.242;11.644;2023-02-28T16:19:18;13.87;;;9.90;;
16075;SDS011;8142;48.242;11.644;2023-02-28T16:21:44;17.33;;;9.87;;
16075;SDS011;8142;48.242;11.644;2023-02-28T16:24:10;15.20;;;9.97;;
16075;SDS011;8142;48.242;11.644;2023-02-28T16:26:36;14.93;;;10.10;;
16075;SDS011;8142;48.242;11.644;2023-02-28T16:29:05;14.07;;;9.30;;
16075;SDS011;8142;48.242;11.644;2023-02-28T16:31:33;15.80;;;10.30;;
16075;SDS011;8142;48.242;11.644;2023-02-28T16:34:02;15.57;;;9.77;;
16075;SDS011;8142;48.242;11.644;2023-02-28T16:36:28;15.53;;;9.97;;
16075;SDS011;8142;48.242;11.644;2023-02-28T16:38:55;15.87;;;9.83;;
16075;SDS011;8142;48.242;11.644;2023-02-28T16:41:22;16.53;;;10.23;;
16075;SDS011;8142;48.242;11.644;2023-02-28T16:43:54;14.87;;;10.40;;
16075;SDS011;8142;48.242;11.644;2023-02-28T16:46:24;15.20;;;9.47;;
16075;SDS011;8142;48.242;11.644;2023-02-28T16:48:59;16.13;;;10.13;;
16075;SDS011;8142;48.242;11.644;2023-02-28T16:51:25;15.73;;;10.10;;
16075;SDS011;8142;48.242;11.644;2023-02-28T16:53:51;14.70;;;10.30;;
16075;SDS011;8142;48.242;11.644;2023-02-28T16:56:18;15.17;;;9.83;;
16075;SDS011;8142;48.242;11.644;2023-02-28T16:58:46;15.70;;;10.53;;
16075;SDS011;8142;48.242;11.644;2023-02-28T17:01:14;14.23;;;9.50;;
16075;SDS011;8142;48.242;11.644;2023-02-28T17:03:41;16.93;;;10.47;;
16075;SDS011;8142;48.242;11.644;2023-02-28T17:06:18;14.93;;;10.70;;
16075;SDS011;8142;48.242;11.644;2023-02-28T17:08:47;20.47;;;15.17;;
16075;SDS011;8142;48.242;11.644;2023-02-28T17:11:15;22.23;;;15.73;;
16075;SDS011;8142;48.242;11.644;2023-02-28T17:13:41;35.57;;;25.87;;
16075;SDS011;8142;48.242;11.644;2023-02-28T17:16:10;20.60;;;14.27;;